sensor_id;sensor_type;location;lat;lon;timestamp;pressure;altitude;pressure_sealevel;temperature;humidity
77574;BME280;66710;48.868;9.080;2023-07-13T00:01:02;97971.00;;;18.90;56.37
77574;BME280;66710;48.868;9.080;2023-07-13T00:03:27;97974.25;;;18.92;56.34
77574;BME280;66710;48.868;9.080;2023-07-13T00:06:00;97976.53;;;18.90;56.08
77574;BME280;66710;48.868;9.080;2023-07-13T00:08:25;97971.63;;;18.79;56.33
77574;BME280;66710;48.868;9.080;2023-07-13T00:10:52;97975.53;;;18.77;56.38
77574;BME280;66710;48.868;9.080;2023-07-13T00:13:19;97980.41;;;18.72;56.73
77574;BME280;66710;48.868;9.080;2023-07-13T00:15:45;97978.13;;;18.65;56.77
77574;BME280;66710;48.868;9.080;2023-07-13T00:18:10;97973.78;;;18.55;56.74
77574;BME280;66710;48.868;9.080;2023-07-13T00:20:35;97979.47;;;18.42;57.44
77574;BME280;66710;48.868;9.080;2023-07-13T00:23:01;97977.34;;;18.38;57.65
77574;BME280;66710;48.868;9.080;2023-07-13T00:25:27;97976.03;;;18.18;58.24
77574;BME280;66710;48.868;9.080;2023-07-13T00:27:53;97970.06;;;18.25;57.90
77574;BME280;66710;48.868;9.080;2023-07-13T00:30:19;97971.03;;;18.29;57.99
77574;BME280;66710;48.868;9.080;2023-07-13T00:32:44;97966.97;;;18.09;58.38
77574;BME280;66710;48.868;9.080;2023-07-13T00:35:09;97963.72;;;18.16;57.87
77574;BME280;66710;48.868;9.080;2023-07-13T00:37:35;97964.22;;;18.27;57.48
77574;BME280;66710;48.868;9.080;2023-07-13T00:40:04;97963.22;;;18.23;57.54
77574;BME280;66710;48.868;9.080;2023-07-13T00:42:31;97952.38;;;18.00;58.43
77574;BME280;66710;48.868;9.080;2023-07-13T00:47:36;97962.41;;;18.13;57.01
77574;BME280;66710;48.868;9.080;2023-07-13T00:50:02;97959.81;;;18.17;57.19
77574;BME280;66710;48.868;9.080;2023-07-13T00:52:28;97962.09;;;18.06;57.28
77574;BME280;66710;48.868;9.080;2023-07-13T00:54:54;97958.81;;;17.87;58.13
77574;BME280;66710;48.868;9.080;2023-07-13T00:57:21;97960.63;;;18.00;57.51
77574;BME280;66710;48.868;9.080;2023-07-13T00:59:50;97965.00;;;18.10;57.26
77574;BME280;66710;48.868;9.080;2023-07-13T01:02:17;97962.06;;;17.97;57.63
77574;BME280;66710;48.868;9.080;2023-07-13T01:04:42;97958.69;;;18.00;57.97
77574;BME280;66710;48.868;9.080;2023-07-13T01:07:09;97958.50;;;17.97;57.82
77574;BME280;66710;48.868;9.080;2023-07-13T01:09:35;97965.66;;;18.07;57.71
77574;BME280;66710;48.868;9.080;2023-07-13T01:12:01;97963.03;;;18.02;57.92
77574;BME280;66710;48.868;9.080;2023-07-13T01:14:26;97960.13;;;17.98;58.03
77574;BME280;66710;48.868;9.080;2023-07-13T01:16:52;97961.75;;;17.90;58.38
77574;BME280;66710;48.868;9.080;2023-07-13T01:19:33;97961.38;;;17.83;58.56
77574;BME280;66710;48.868;9.080;2023-07-13T01:22:15;97962.31;;;17.78;58.89
77574;BME280;66710;48.868;9.080;2023-07-13T01:24:44;97965.63;;;17.89;58.84
77574;BME280;66710;48.868;9.080;2023-07-13T01:27:13;97962.69;;;17.86;58.42
77574;BME280;66710;48.868;9.080;2023-07-13T01:29:39;97958.94;;;17.81;58.83
77574;BME280;66710;48.868;9.080;2023-07-13T01:32:11;97965.72;;;17.67;59.51
77574;BME280;66710;48.868;9.080;2023-07-13T01:34:37;97963.75;;;17.58;59.94
77574;BME280;66710;48.868;9.080;2023-07-13T01:37:04;97967.41;;;17.45;60.40
77574;BME280;66710;48.868;9.080;2023-07-13T01:39:30;97965.94;;;17.39;60.69
77574;BME280;66710;48.868;9.080;2023-07-13T01:41:55;97967.22;;;17.33;61.21
77574;BME280;66710;48.868;9.080;2023-07-13T01:44:20;97963.16;;;17.30;60.67
77574;BME280;66710;48.868;9.080;2023-07-13T01:46:46;97970.63;;;16.98;62.06
77574;BME280;66710;48.868;9.080;2023-07-13T01:49:11;97980.03;;;17.06;61.55
77574;BME280;66710;48.868;9.080;2023-07-13T01:51:37;97982.25;;;16.95;61.40
77574;BME280;66710;48.868;9.080;2023-07-13T01:54:02;97989.22;;;16.93;61.82
77574;BME280;66710;48.868;9.080;2023-07-13T01:56:28;97983.72;;;16.93;61.16
77574;BME280;66710;48.868;9.080;2023-07-13T01:58:53;97989.66;;;16.86;61.06
77574;BME280;66710;48.868;9.080;2023-07-13T02:01:18;97990.88;;;16.80;61.75
77574;BME280;66710;48.868;9.080;2023-07-13T02:03:44;97992.81;;;16.79;61.41
77574;BME280;66710;48.868;9.080;2023-07-13T02:06:09;97995.47;;;16.84;61.42
77574;BME280;66710;48.868;9.080;2023-07-13T02:08:34;97998.97;;;16.54;62.52
77574;BME280;66710;48.868;9.080;2023-07-13T02:11:02;97996.13;;;16.45;62.93
77574;BME280;66710;48.868;9.080;2023-07-13T02:13:27;98007.25;;;16.40;63.00
77574;BME280;66710;48.868;9.080;2023-07-13T02:15:53;98010.31;;;16.38;62.88
77574;BME280;66710;48.868;9.080;2023-07-13T02:18:18;98015.22;;;16.27;63.17
77574;BME280;66710;48.868;9.080;2023-07-13T02:20:44;98017.41;;;16.17;63.97
77574;BME280;66710;48.868;9.080;2023-07-13T02:23:09;98018.91;;;16.09;63.59
77574;BME280;66710;48.868;9.080;2023-07-13T02:25:35;98012.94;;;16.07;63.85
77574;BME280;66710;48.868;9.080;2023-07-13T02:28:00;98000.19;;;16.11;63.90
77574;BME280;66710;48.868;9.080;2023-07-13T02:30:26;98005.19;;;16.09;63.67
77574;BME280;66710;48.868;9.080;2023-07-13T02:32:55;98005.06;;;16.14;63.21
77574;BME280;66710;48.868;9.080;2023-07-13T02:35:20;98021.16;;;16.07;63.88
77574;BME280;66710;48.868;9.080;2023-07-13T02:37:45;98014.28;;;15.96;64.62
77574;BME280;66710;48.868;9.080;2023-07-13T02:40:11;98010.81;;;15.90;63.72
77574;BME280;66710;48.868;9.080;2023-07-13T02:42:36;98020.00;;;15.85;62.96
77574;BME280;66710;48.868;9.080;2023-07-13T02:45:02;98020.38;;;16.06;64.52
77574;BME280;66710;48.868;9.080;2023-07-13T02:47:27;98022.06;;;16.16;64.16
77574;BME280;66710;48.868;9.080;2023-07-13T02:49:52;98019.97;;;15.99;64.32
77574;BME280;66710;48.868;9.080;2023-07-13T02:52:18;98027.56;;;16.02;64.76
77574;BME280;66710;48.868;9.080;2023-07-13T02:54:43;98028.00;;;16.09;64.48
77574;BME280;66710;48.868;9.080;2023-07-13T02:57:08;98031.47;;;16.01;65.13
77574;BME280;66710;48.868;9.080;2023-07-13T02:59:34;98025.06;;;16.06;64.96
77574;BME280;66710;48.868;9.080;2023-07-13T03:02:01;98027.72;;;15.97;65.32
77574;BME280;66710;48.868;9.080;2023-07-13T03:04:27;98021.19;;;15.93;65.24
77574;BME280;66710;48.868;9.080;2023-07-13T03:06:52;98025.59;;;15.80;64.47
77574;BME280;66710;48.868;9.080;2023-07-13T03:09:18;98022.09;;;16.02;64.94
77574;BME280;66710;48.868;9.080;2023-07-13T03:11:43;98029.03;;;16.00;64.93
77574;BME280;66710;48.868;9.080;2023-07-13T03:14:08;98026.78;;;16.02;64.65
77574;BME280;66710;48.868;9.080;2023-07-13T03:16:34;98033.81;;;16.08;64.54
77574;BME280;66710;48.868;9.080;2023-07-13T03:18:59;98034.44;;;15.91;65.40
77574;BME280;66710;48.868;9.080;2023-07-13T03:21:24;98041.41;;;16.11;63.82
77574;BME280;66710;48.868;9.080;2023-07-13T03:23:50;98035.63;;;15.99;64.19
77574;BME280;66710;48.868;9.080;2023-07-13T03:26:19;98031.78;;;15.86;64.47
77574;BME280;66710;48.868;9.080;2023-07-13T03:28:45;98041.88;;;15.90;64.21
77574;BME280;66710;48.868;9.080;2023-07-13T03:31:17;98047.16;;;15.87;64.56
77574;BME280;66710;48.868;9.080;2023-07-13T03:33:43;98040.53;;;15.88;64.41
77574;BME280;66710;48.868;9.080;2023-07-13T03:36:32;98047.16;;;15.87;64.56
77574;BME280;66710;48.868;9.080;2023-07-13T03:39:00;98056.16;;;15.73;65.04
77574;BME280;66710;48.868;9.080;2023-07-13T03:41:26;98063.59;;;15.73;64.82
77574;BME280;66710;48.868;9.080;2023-07-13T03:43:52;98066.66;;;15.71;64.70
77574;BME280;66710;48.868;9.080;2023-07-13T03:46:18;98066.75;;;15.66;65.12
77574;BME280;66710;48.868;9.080;2023-07-13T03:48:45;98072.44;;;15.70;64.85
77574;BME280;66710;48.868;9.080;2023-07-13T03:51:12;98072.25;;;15.66;64.85
77574;BME280;66710;48.868;9.080;2023-07-13T03:53:41;98078.25;;;15.68;64.83
77574;BME280;66710;48.868;9.080;2023-07-13T03:56:07;98072.88;;;15.77;64.51
77574;BME280;66710;48.868;9.080;2023-07-13T03:58:35;98080.09;;;15.73;65.04
77574;BME280;66710;48.868;9.080;2023-07-13T04:01:02;98087.00;;;15.70;65.44
77574;BME280;66710;48.868;9.080;2023-07-13T04:03:28;98086.44;;;15.87;64.07
77574;BME280;66710;48.868;9.080;2023-07-13T04:05:55;98083.38;;;15.89;64.32
77574;BME280;66710;48.868;9.080;2023-07-13T04:08:26;98079.94;;;15.97;63.93
77574;BME280;66710;48.868;9.080;2023-07-13T04:10:52;98081.75;;;16.02;63.56
77574;BME280;66710;48.868;9.080;2023-07-13T04:13:17;98087.13;;;16.07;63.58
77574;BME280;66710;48.868;9.080;2023-07-13T04:15:42;98095.38;;;16.21;62.55
77574;BME280;66710;48.868;9.080;2023-07-13T04:18:08;98082.13;;;16.09;63.58
77574;BME280;66710;48.868;9.080;2023-07-13T04:20:34;98082.03;;;16.00;63.92
77574;BME280;66710;48.868;9.080;2023-07-13T04:22:59;98077.78;;;15.94;64.40
77574;BME280;66710;48.868;9.080;2023-07-13T04:25:25;98077.06;;;15.88;64.97
77574;BME280;66710;48.868;9.080;2023-07-13T04:27:50;98081.75;;;15.88;64.98
77574;BME280;66710;48.868;9.080;2023-07-13T04:30:15;98091.72;;;15.84;65.53
77574;BME280;66710;48.868;9.080;2023-07-13T04:32:41;98089.94;;;15.74;65.91
77574;BME280;66710;48.868;9.080;2023-07-13T04:35:06;98091.78;;;15.65;66.43
77574;BME280;66710;48.868;9.080;2023-07-13T04:37:32;98094.00;;;15.63;65.82
77574;BME280;66710;48.868;9.080;2023-07-13T04:39:57;98090.25;;;15.59;66.40
77574;BME280;66710;48.868;9.080;2023-07-13T04:42:22;98092.91;;;15.64;65.45
77574;BME280;66710;48.868;9.080;2023-07-13T04:44:51;98099.41;;;15.68;65.42
77574;BME280;66710;48.868;9.080;2023-07-13T04:47:17;98091.66;;;15.56;66.39
77574;BME280;66710;48.868;9.080;2023-07-13T04:49:43;98101.13;;;15.50;67.05
77574;BME280;66710;48.868;9.080;2023-07-13T04:52:08;98096.25;;;15.61;68.98
77574;BME280;66710;48.868;9.080;2023-07-13T04:54:34;98097.03;;;15.47;67.92
77574;BME280;66710;48.868;9.080;2023-07-13T04:57:00;98095.03;;;15.53;68.16
77574;BME280;66710;48.868;9.080;2023-07-13T04:59:25;98091.25;;;15.49;67.95
77574;BME280;66710;48.868;9.080;2023-07-13T05:01:51;98101.53;;;15.57;67.68
77574;BME280;66710;48.868;9.080;2023-07-13T05:04:17;98101.03;;;15.55;66.94
77574;BME280;66710;48.868;9.080;2023-07-13T05:06:42;98101.34;;;15.67;67.05
77574;BME280;66710;48.868;9.080;2023-07-13T05:09:07;98102.16;;;15.68;66.22
77574;BME280;66710;48.868;9.080;2023-07-13T05:11:33;98103.59;;;15.65;66.47
77574;BME280;66710;48.868;9.080;2023-07-13T05:13:58;98102.19;;;15.82;65.47
77574;BME280;66710;48.868;9.080;2023-07-13T05:16:24;98106.78;;;15.86;65.51
77574;BME280;66710;48.868;9.080;2023-07-13T05:18:49;98103.13;;;15.91;65.82
77574;BME280;66710;48.868;9.080;2023-07-13T05:21:14;98112.78;;;16.02;65.64
77574;BME280;66710;48.868;9.080;2023-07-13T05:23:40;98115.41;;;16.07;65.62
77574;BME280;66710;48.868;9.080;2023-07-13T05:26:08;98118.91;;;16.13;65.44
77574;BME280;66710;48.868;9.080;2023-07-13T05:28:34;98113.72;;;16.11;65.45
77574;BME280;66710;48.868;9.080;2023-07-13T05:30:59;98116.66;;;16.15;66.02
77574;BME280;66710;48.868;9.080;2023-07-13T05:33:26;98116.66;;;16.15;67.67
77574;BME280;66710;48.868;9.080;2023-07-13T05:35:52;98120.31;;;16.10;66.49
77574;BME280;66710;48.868;9.080;2023-07-13T05:38:18;98115.31;;;16.13;66.49
77574;BME280;66710;48.868;9.080;2023-07-13T05:40:44;98114.72;;;16.16;65.91
77574;BME280;66710;48.868;9.080;2023-07-13T05:43:10;98118.06;;;16.13;65.20
77574;BME280;66710;48.868;9.080;2023-07-13T05:45:35;98116.75;;;16.24;65.02
77574;BME280;66710;48.868;9.080;2023-07-13T05:48:01;98119.72;;;16.27;64.96
77574;BME280;66710;48.868;9.080;2023-07-13T05:50:26;98123.06;;;16.38;64.97
77574;BME280;66710;48.868;9.080;2023-07-13T05:52:52;98133.44;;;16.41;65.05
77574;BME280;66710;48.868;9.080;2023-07-13T05:55:18;98132.22;;;16.34;65.06
77574;BME280;66710;48.868;9.080;2023-07-13T05:57:43;98129.56;;;16.42;65.20
77574;BME280;66710;48.868;9.080;2023-07-13T06:00:09;98135.94;;;16.65;64.67
77574;BME280;66710;48.868;9.080;2023-07-13T06:02:35;98131.50;;;16.92;64.41
77574;BME280;66710;48.868;9.080;2023-07-13T06:05:00;98139.00;;;17.00;64.16
77574;BME280;66710;48.868;9.080;2023-07-13T06:07:26;98131.63;;;17.10;63.91
77574;BME280;66710;48.868;9.080;2023-07-13T06:09:51;98140.66;;;17.24;63.19
77574;BME280;66710;48.868;9.080;2023-07-13T06:12:16;98136.81;;;17.56;62.75
77574;BME280;66710;48.868;9.080;2023-07-13T06:14:42;98153.41;;;17.42;63.36
77574;BME280;66710;48.868;9.080;2023-07-13T06:17:07;98155.94;;;17.30;62.90
77574;BME280;66710;48.868;9.080;2023-07-13T06:19:33;98149.97;;;17.59;63.33
77574;BME280;66710;48.868;9.080;2023-07-13T06:21:59;98159.78;;;17.74;61.20
77574;BME280;66710;48.868;9.080;2023-07-13T06:24:25;98162.41;;;17.79;60.80
77574;BME280;66710;48.868;9.080;2023-07-13T06:26:50;98159.91;;;17.69;59.88
77574;BME280;66710;48.868;9.080;2023-07-13T06:29:16;98166.59;;;17.77;59.33
77574;BME280;66710;48.868;9.080;2023-07-13T06:31:41;98166.13;;;17.84;59.28
77574;BME280;66710;48.868;9.080;2023-07-13T06:34:06;98156.47;;;18.35;58.72
77574;BME280;66710;48.868;9.080;2023-07-13T06:36:32;98163.38;;;18.55;55.99
77574;BME280;66710;48.868;9.080;2023-07-13T06:38:57;98157.19;;;18.58;57.22
77574;BME280;66710;48.868;9.080;2023-07-13T06:41:23;98167.19;;;18.85;55.86
77574;BME280;66710;48.868;9.080;2023-07-13T06:43:51;98172.06;;;19.06;52.38
77574;BME280;66710;48.868;9.080;2023-07-13T06:46:16;98179.22;;;19.16;52.69
77574;BME280;66710;48.868;9.080;2023-07-13T06:48:41;98172.81;;;19.59;51.21
77574;BME280;66710;48.868;9.080;2023-07-13T06:51:07;98178.72;;;19.48;51.26
77574;BME280;66710;48.868;9.080;2023-07-13T06:53:33;98182.63;;;19.39;51.70
77574;BME280;66710;48.868;9.080;2023-07-13T06:55:58;98189.13;;;18.90;51.98
77574;BME280;66710;48.868;9.080;2023-07-13T06:58:23;98190.25;;;19.16;50.63
77574;BME280;66710;48.868;9.080;2023-07-13T07:00:51;98190.09;;;19.03;50.69
77574;BME280;66710;48.868;9.080;2023-07-13T07:03:17;98190.56;;;18.97;50.90
77574;BME280;66710;48.868;9.080;2023-07-13T07:05:42;98186.84;;;19.19;49.75
77574;BME280;66710;48.868;9.080;2023-07-13T07:08:08;98191.69;;;20.30;47.12
77574;BME280;66710;48.868;9.080;2023-07-13T07:10:34;98196.09;;;20.61;47.89
77574;BME280;66710;48.868;9.080;2023-07-13T07:13:00;98197.63;;;21.30;45.65
77574;BME280;66710;48.868;9.080;2023-07-13T07:15:26;98187.72;;;21.42;43.93
77574;BME280;66710;48.868;9.080;2023-07-13T07:17:52;98192.34;;;21.37;45.69
77574;BME280;66710;48.868;9.080;2023-07-13T07:20:17;98190.00;;;21.48;45.27
77574;BME280;66710;48.868;9.080;2023-07-13T07:22:42;98189.09;;;20.93;45.41
77574;BME280;66710;48.868;9.080;2023-07-13T07:25:08;98193.81;;;20.93;44.93
77574;BME280;66710;48.868;9.080;2023-07-13T07:27:33;98196.06;;;21.63;44.20
77574;BME280;66710;48.868;9.080;2023-07-13T07:29:59;98192.88;;;20.89;44.25
77574;BME280;66710;48.868;9.080;2023-07-13T07:32:24;98201.09;;;21.82;42.09
77574;BME280;66710;48.868;9.080;2023-07-13T07:34:50;98188.94;;;22.69;40.62
77574;BME280;66710;48.868;9.080;2023-07-13T07:37:15;98183.84;;;22.83;39.66
77574;BME280;66710;48.868;9.080;2023-07-13T07:39:42;98191.03;;;22.47;41.54
77574;BME280;66710;48.868;9.080;2023-07-13T07:42:08;98189.47;;;22.25;40.80
77574;BME280;66710;48.868;9.080;2023-07-13T07:44:33;98189.41;;;21.76;41.92
77574;BME280;66710;48.868;9.080;2023-07-13T07:47:00;98184.50;;;23.17;40.67
77574;BME280;66710;48.868;9.080;2023-07-13T07:49:25;98193.69;;;22.44;41.02
77574;BME280;66710;48.868;9.080;2023-07-13T07:51:51;98187.84;;;22.12;41.54
77574;BME280;66710;48.868;9.080;2023-07-13T07:54:17;98198.47;;;21.98;42.92
77574;BME280;66710;48.868;9.080;2023-07-13T07:56:42;98188.50;;;22.67;41.14
77574;BME280;66710;48.868;9.080;2023-07-13T07:59:07;98182.56;;;23.05;39.34
77574;BME280;66710;48.868;9.080;2023-07-13T08:01:32;98182.44;;;23.14;39.94
77574;BME280;66710;48.868;9.080;2023-07-13T08:03:58;98186.63;;;22.34;40.76
77574;BME280;66710;48.868;9.080;2023-07-13T08:06:23;98189.56;;;23.56;36.99
77574;BME280;66710;48.868;9.080;2023-07-13T08:08:49;98188.88;;;23.87;37.44
77574;BME280;66710;48.868;9.080;2023-07-13T08:11:17;98193.69;;;22.81;36.62
77574;BME280;66710;48.868;9.080;2023-07-13T08:13:42;98197.91;;;23.27;36.24
77574;BME280;66710;48.868;9.080;2023-07-13T08:16:07;98195.16;;;24.00;35.36
77574;BME280;66710;48.868;9.080;2023-07-13T08:18:33;98190.78;;;23.71;35.26
77574;BME280;66710;48.868;9.080;2023-07-13T08:21:03;98197.38;;;24.54;34.48
77574;BME280;66710;48.868;9.080;2023-07-13T08:23:28;98195.34;;;23.22;36.93
77574;BME280;66710;48.868;9.080;2023-07-13T08:25:54;98200.59;;;23.52;38.23
77574;BME280;66710;48.868;9.080;2023-07-13T08:28:23;98196.63;;;24.10;36.30
77574;BME280;66710;48.868;9.080;2023-07-13T08:30:48;98194.75;;;24.30;35.15
77574;BME280;66710;48.868;9.080;2023-07-13T08:33:15;98197.63;;;24.33;35.77
77574;BME280;66710;48.868;9.080;2023-07-13T08:35:41;98199.00;;;24.71;35.42
77574;BME280;66710;48.868;9.080;2023-07-13T08:38:06;98186.09;;;23.59;35.18
77574;BME280;66710;48.868;9.080;2023-07-13T08:40:33;98193.06;;;24.57;35.12
77574;BME280;66710;48.868;9.080;2023-07-13T08:42:59;98197.56;;;24.97;37.69
77574;BME280;66710;48.868;9.080;2023-07-13T08:48:28;98206.41;;;24.35;36.96
77574;BME280;66710;48.868;9.080;2023-07-13T08:51:04;98198.69;;;25.28;35.46
77574;BME280;66710;48.868;9.080;2023-07-13T08:53:45;98195.47;;;25.45;34.69
77574;BME280;66710;48.868;9.080;2023-07-13T08:56:18;98204.63;;;24.91;34.09
77574;BME280;66710;48.868;9.080;2023-07-13T08:58:44;98203.56;;;25.50;34.64
77574;BME280;66710;48.868;9.080;2023-07-13T09:04:03;98199.50;;;25.48;34.39
77574;BME280;66710;48.868;9.080;2023-07-13T09:11:56;98201.13;;;25.68;34.38
77574;BME280;66710;48.868;9.080;2023-07-13T09:14:36;98201.31;;;25.79;33.95
77574;BME280;66710;48.868;9.080;2023-07-13T09:17:08;98203.25;;;25.95;33.65
77574;BME280;66710;48.868;9.080;2023-07-13T09:19:35;98203.84;;;25.65;34.35
77574;BME280;66710;48.868;9.080;2023-07-13T09:22:03;98208.78;;;25.52;34.75
77574;BME280;66710;48.868;9.080;2023-07-13T09:24:41;98212.50;;;25.79;33.44
77574;BME280;66710;48.868;9.080;2023-07-13T09:27:24;98205.75;;;26.00;33.65
77574;BME280;66710;48.868;9.080;2023-07-13T09:30:11;98209.88;;;25.12;34.96
77574;BME280;66710;48.868;9.080;2023-07-13T09:32:49;98205.00;;;26.26;33.85
77574;BME280;66710;48.868;9.080;2023-07-13T09:35:19;98212.19;;;26.50;32.02
77574;BME280;66710;48.868;9.080;2023-07-13T09:37:45;98202.94;;;26.00;33.40
77574;BME280;66710;48.868;9.080;2023-07-13T09:40:20;98210.22;;;25.10;33.42
77574;BME280;66710;48.868;9.080;2023-07-13T09:42:48;98209.28;;;25.38;33.75
77574;BME280;66710;48.868;9.080;2023-07-13T09:45:17;98206.31;;;27.09;30.38
77574;BME280;66710;48.868;9.080;2023-07-13T09:47:59;98204.84;;;26.88;32.76
77574;BME280;66710;48.868;9.080;2023-07-13T09:50:24;98204.34;;;26.59;32.67
77574;BME280;66710;48.868;9.080;2023-07-13T09:52:50;98210.00;;;25.94;33.01
77574;BME280;66710;48.868;9.080;2023-07-13T09:55:37;98194.75;;;26.10;32.21
77574;BME280;66710;48.868;9.080;2023-07-13T09:58:12;98198.09;;;26.93;31.24
77574;BME280;66710;48.868;9.080;2023-07-13T10:00:39;98201.75;;;26.47;32.74
77574;BME280;66710;48.868;9.080;2023-07-13T10:05:45;98178.59;;;25.38;33.17
77574;BME280;66710;48.868;9.080;2023-07-13T10:08:29;98190.88;;;25.17;33.54
77574;BME280;66710;48.868;9.080;2023-07-13T10:11:17;98196.97;;;23.92;35.09
77574;BME280;66710;48.868;9.080;2023-07-13T10:16:28;98192.47;;;26.16;32.56
77574;BME280;66710;48.868;9.080;2023-07-13T10:18:59;98186.41;;;26.83;32.03
77574;BME280;66710;48.868;9.080;2023-07-13T10:21:32;98188.59;;;26.71;31.18
77574;BME280;66710;48.868;9.080;2023-07-13T10:24:21;98194.38;;;26.58;32.92
77574;BME280;66710;48.868;9.080;2023-07-13T10:26:58;98187.75;;;26.20;33.93
77574;BME280;66710;48.868;9.080;2023-07-13T10:29:27;98186.56;;;26.94;32.11
77574;BME280;66710;48.868;9.080;2023-07-13T10:31:54;98198.47;;;26.91;31.14
77574;BME280;66710;48.868;9.080;2023-07-13T10:34:19;98194.56;;;26.96;30.72
77574;BME280;66710;48.868;9.080;2023-07-13T10:36:47;98193.84;;;26.49;32.89
77574;BME280;66710;48.868;9.080;2023-07-13T10:39:17;98196.06;;;26.63;31.97
77574;BME280;66710;48.868;9.080;2023-07-13T10:41:44;98192.59;;;26.23;31.66
77574;BME280;66710;48.868;9.080;2023-07-13T10:44:21;98193.34;;;24.68;32.68
77574;BME280;66710;48.868;9.080;2023-07-13T10:46:53;98187.09;;;24.90;33.63
77574;BME280;66710;48.868;9.080;2023-07-13T10:49:20;98186.84;;;25.15;32.93
77574;BME280;66710;48.868;9.080;2023-07-13T10:51:45;98190.75;;;25.49;33.23
77574;BME280;66710;48.868;9.080;2023-07-13T10:54:21;98190.97;;;24.86;32.72
77574;BME280;66710;48.868;9.080;2023-07-13T10:56:52;98195.22;;;25.15;32.61
77574;BME280;66710;48.868;9.080;2023-07-13T10:59:24;98179.97;;;24.93;33.03
77574;BME280;66710;48.868;9.080;2023-07-13T11:01:58;98184.25;;;25.42;32.77
77574;BME280;66710;48.868;9.080;2023-07-13T11:04:26;98188.44;;;24.81;33.14
77574;BME280;66710;48.868;9.080;2023-07-13T11:06:57;98179.16;;;24.57;33.25
77574;BME280;66710;48.868;9.080;2023-07-13T11:09:34;98182.75;;;24.93;33.27
77574;BME280;66710;48.868;9.080;2023-07-13T11:12:07;98183.41;;;24.86;32.64
77574;BME280;66710;48.868;9.080;2023-07-13T11:14:39;98168.03;;;25.90;32.33
77574;BME280;66710;48.868;9.080;2023-07-13T11:20:21;98164.03;;;25.68;31.53
77574;BME280;66710;48.868;9.080;2023-07-13T11:25:36;98157.53;;;26.76;29.68
77574;BME280;66710;48.868;9.080;2023-07-13T11:28:21;98170.91;;;26.63;29.42
77574;BME280;66710;48.868;9.080;2023-07-13T11:36:23;98154.66;;;25.99;31.61
77574;BME280;66710;48.868;9.080;2023-07-13T11:39:09;98160.31;;;26.76;30.57
77574;BME280;66710;48.868;9.080;2023-07-13T11:41:44;98149.91;;;27.03;29.59
77574;BME280;66710;48.868;9.080;2023-07-13T11:44:12;98150.50;;;27.84;28.49
77574;BME280;66710;48.868;9.080;2023-07-13T11:46:37;98154.75;;;26.53;29.52
77574;BME280;66710;48.868;9.080;2023-07-13T11:49:05;98157.97;;;26.55;30.33
77574;BME280;66710;48.868;9.080;2023-07-13T11:51:34;98155.47;;;26.00;31.23
77574;BME280;66710;48.868;9.080;2023-07-13T11:54:06;98162.28;;;26.75;30.55
77574;BME280;66710;48.868;9.080;2023-07-13T11:56:36;98164.25;;;26.71;29.49
77574;BME280;66710;48.868;9.080;2023-07-13T11:59:07;98171.78;;;25.78;31.10
77574;BME280;66710;48.868;9.080;2023-07-13T12:01:33;98164.53;;;26.16;30.35
77574;BME280;66710;48.868;9.080;2023-07-13T12:04:02;98162.72;;;28.02;26.94
77574;BME280;66710;48.868;9.080;2023-07-13T12:06:33;98155.66;;;29.30;27.60
77574;BME280;66710;48.868;9.080;2023-07-13T12:09:08;98150.25;;;26.21;29.52
77574;BME280;66710;48.868;9.080;2023-07-13T12:11:38;98155.50;;;26.49;29.34
77574;BME280;66710;48.868;9.080;2023-07-13T12:14:05;98147.50;;;29.07;27.72
77574;BME280;66710;48.868;9.080;2023-07-13T12:16:32;98154.91;;;28.70;27.21
77574;BME280;66710;48.868;9.080;2023-07-13T12:18:59;98154.81;;;28.56;26.81
77574;BME280;66710;48.868;9.080;2023-07-13T12:21:33;98146.59;;;27.54;28.76
77574;BME280;66710;48.868;9.080;2023-07-13T12:24:00;98162.22;;;28.37;27.21
77574;BME280;66710;48.868;9.080;2023-07-13T12:26:28;98158.31;;;27.33;27.73
77574;BME280;66710;48.868;9.080;2023-07-13T12:28:55;98146.38;;;29.19;25.80
77574;BME280;66710;48.868;9.080;2023-07-13T12:33:59;98160.22;;;27.26;27.65
77574;BME280;66710;48.868;9.080;2023-07-13T12:36:25;98156.59;;;28.34;26.16
77574;BME280;66710;48.868;9.080;2023-07-13T12:38:51;98154.47;;;27.83;25.95
77574;BME280;66710;48.868;9.080;2023-07-13T12:41:16;98151.72;;;28.72;24.73
77574;BME280;66710;48.868;9.080;2023-07-13T12:43:45;98155.06;;;28.44;25.85
77574;BME280;66710;48.868;9.080;2023-07-13T12:46:19;98145.41;;;28.89;27.28
77574;BME280;66710;48.868;9.080;2023-07-13T12:48:51;98141.00;;;29.83;25.73
77574;BME280;66710;48.868;9.080;2023-07-13T12:51:21;98151.91;;;27.02;27.37
77574;BME280;66710;48.868;9.080;2023-07-13T12:53:49;98162.84;;;26.84;27.97
77574;BME280;66710;48.868;9.080;2023-07-13T12:56:26;98143.47;;;29.04;25.24
77574;BME280;66710;48.868;9.080;2023-07-13T12:58:58;98155.31;;;28.72;26.22
77574;BME280;66710;48.868;9.080;2023-07-13T13:01:27;98160.66;;;27.28;27.41
77574;BME280;66710;48.868;9.080;2023-07-13T13:03:53;98154.00;;;26.82;27.53
77574;BME280;66710;48.868;9.080;2023-07-13T13:06:25;98145.16;;;26.77;28.12
77574;BME280;66710;48.868;9.080;2023-07-13T13:08:55;98147.69;;;27.16;27.25
77574;BME280;66710;48.868;9.080;2023-07-13T13:11:23;98143.56;;;27.36;29.65
77574;BME280;66710;48.868;9.080;2023-07-13T13:13:50;98134.94;;;28.27;26.76
77574;BME280;66710;48.868;9.080;2023-07-13T13:18:53;98135.03;;;27.97;26.28
77574;BME280;66710;48.868;9.080;2023-07-13T13:21:20;98129.78;;;27.54;27.03
77574;BME280;66710;48.868;9.080;2023-07-13T13:23:46;98133.78;;;26.93;27.42
77574;BME280;66710;48.868;9.080;2023-07-13T13:26:15;98137.50;;;28.47;26.42
77574;BME280;66710;48.868;9.080;2023-07-13T13:28:42;98126.69;;;28.04;26.34
77574;BME280;66710;48.868;9.080;2023-07-13T13:31:12;98137.53;;;28.06;25.98
77574;BME280;66710;48.868;9.080;2023-07-13T13:33:41;98134.38;;;27.36;27.26
77574;BME280;66710;48.868;9.080;2023-07-13T13:36:20;98136.03;;;28.15;26.19
77574;BME280;66710;48.868;9.080;2023-07-13T13:38:47;98145.00;;;28.35;25.95